createdAt,value
2018-09-22T00:00:36.458Z,96944.74
2018-09-22T00:02:12.257Z,96949.50
2018-09-22T00:03:49.903Z,96945.07
2018-09-22T00:05:25.288Z,96944.19
2018-09-22T00:07:02.498Z,96954.06
2018-09-22T00:08:38.058Z,96956.20
2018-09-22T00:10:13.746Z,96953.90
2018-09-22T00:11:49.452Z,96953.02
2018-09-22T00:13:25.248Z,96955.43
2018-09-22T00:15:00.485Z,96956.36
2018-09-22T00:16:36.506Z,96957.89
2018-09-22T00:18:14.614Z,96951.93
2018-09-22T00:19:51.749Z,96949.02
2018-09-22T00:21:27.627Z,96957.22
2018-09-22T00:23:05.328Z,96954.92
2018-09-22T00:24:42.732Z,96956.02
2018-09-22T00:26:19.335Z,96961.48
2018-09-22T00:27:55.585Z,96967.55
2018-09-22T00:29:30.924Z,96962.85
2018-09-22T00:31:07.847Z,96971.22
2018-09-22T00:32:44.387Z,96974.41
2018-09-22T00:34:21.186Z,96967.14
2018-09-22T00:35:56.707Z,96974.14
2018-09-22T00:37:32.602Z,96986.38
2018-09-22T00:39:11.097Z,96984.56
2018-09-22T00:40:47.337Z,96988.67
2018-09-22T00:42:23.942Z,96986.97
2018-09-22T00:44:01.970Z,96990.12
2018-09-22T00:45:38.293Z,96993.11
2018-09-22T00:47:14.578Z,96981.83
2018-09-22T00:48:49.987Z,96987.53
2018-09-22T00:50:25.409Z,96984.70
2018-09-22T00:52:01.614Z,96981.18
2018-09-22T00:53:36.993Z,96980.52
2018-09-22T00:55:13.104Z,96987.44
2018-09-22T00:56:48.744Z,96986.44
2018-09-22T00:58:23.914Z,96988.08
2018-09-22T01:00:00.257Z,96990.48
2018-09-22T01:01:36.329Z,96982.34
2018-09-22T01:03:11.886Z,96987.48
2018-09-22T01:04:48.295Z,96991.04
2018-09-22T01:06:25.672Z,96990.87
2018-09-22T01:08:01.559Z,96998.97
2018-09-22T01:09:37.401Z,96997.47
2018-09-22T01:11:14.491Z,96994.62
2018-09-22T01:12:50.079Z,97005.46
2018-09-22T01:14:25.649Z,96998.05
2018-09-22T01:16:02.256Z,97000.35
2018-09-22T01:17:37.962Z,97002.16
2018-09-22T01:19:13.764Z,96997.51
2018-09-22T01:20:49.970Z,96989.98
2018-09-22T01:22:27.661Z,97006.83
2018-09-22T01:24:03.197Z,97006.66
2018-09-22T01:25:38.660Z,97011.09
2018-09-22T01:27:14.033Z,97009.40
2018-09-22T01:28:49.508Z,97017.77
2018-09-22T01:30:25.151Z,97018.80
2018-09-22T01:32:03.862Z,97015.83
2018-09-22T01:33:39.503Z,97013.09
2018-09-22T01:35:15.262Z,97023.94
2018-09-22T01:36:50.587Z,97021.71
2018-09-22T01:38:25.771Z,97024.17
2018-09-22T01:40:02.209Z,97027.67
2018-09-22T01:41:37.565Z,97027.72
2018-09-22T01:43:12.819Z,97026.08
2018-09-22T01:44:50.540Z,97026.41
2018-09-22T01:46:26.956Z,97030.62
2018-09-22T01:48:04.832Z,97038.81
2018-09-22T01:49:40.186Z,97035.15
2018-09-22T01:51:15.331Z,97039.38
2018-09-22T01:52:51.110Z,97044.67
2018-09-22T01:54:26.978Z,97044.37
2018-09-22T01:56:04.437Z,97044.71
2018-09-22T01:57:41.536Z,97047.18
2018-09-22T01:59:16.989Z,97052.75
2018-09-22T02:00:52.393Z,97050.61
2018-09-22T02:02:28.528Z,97055.22
2018-09-22T02:04:04.945Z,97048.98
2018-09-22T02:05:40.123Z,97050.45
2018-09-22T02:07:15.485Z,97052.41
2018-09-22T02:08:52.392Z,97048.44
2018-09-22T02:10:29.742Z,97044.98
2018-09-22T02:12:08.597Z,97051.05
2018-09-22T02:13:44.320Z,97056.80
2018-09-22T02:15:26.929Z,97056.38
2018-09-22T02:17:04.624Z,97057.78
2018-09-22T02:18:40.370Z,97063.25
2018-09-22T02:20:15.995Z,97064.68
2018-09-22T02:21:51.842Z,97060.91
2018-09-22T02:23:26.874Z,97063.05
2018-09-22T02:25:01.862Z,97053.95
2018-09-22T02:26:44.457Z,97058.22
2018-09-22T02:28:19.666Z,97054.28
2018-09-22T02:29:55.244Z,97061.25
2018-09-22T02:31:30.318Z,97061.68
2018-09-22T02:33:05.483Z,97067.35
2018-09-22T02:34:41.741Z,97069.28
2018-09-22T02:36:23.230Z,97066.42
2018-09-22T02:37:58.810Z,97071.68
2018-09-22T02:39:33.945Z,97079.45
2018-09-22T02:41:10.147Z,97067.08
2018-09-22T02:42:45.523Z,97072.17
2018-09-22T02:44:20.924Z,97071.06
2018-09-22T02:45:57.343Z,97072.48
2018-09-22T02:47:32.465Z,97072.44
2018-09-22T02:49:07.518Z,97075.86
2018-09-22T02:50:43.448Z,97074.93
2018-09-22T02:52:18.352Z,97072.89
2018-09-22T02:53:54.512Z,97078.26
2018-09-22T02:55:30.326Z,97085.19
2018-09-22T02:57:05.294Z,97083.73
2018-09-22T02:58:40.971Z,97079.08
2018-09-22T03:00:17.906Z,97076.85
2018-09-22T03:01:53.515Z,97082.31
2018-09-22T03:03:28.504Z,97076.18
2018-09-22T03:05:04.379Z,97081.21
2018-09-22T03:06:39.996Z,97080.02
2018-09-22T03:08:15.251Z,97081.25
2018-09-22T03:09:50.520Z,97086.67
2018-09-22T03:11:25.375Z,97083.70
2018-09-22T03:13:00.408Z,97082.93
2018-09-22T03:14:35.887Z,97088.06
2018-09-22T03:16:11.675Z,97090.19
2018-09-22T03:17:46.834Z,97085.71
2018-09-22T03:19:21.802Z,97091.95
2018-09-22T03:20:56.737Z,97085.67
2018-09-22T03:22:32.646Z,97095.75
2018-09-22T03:24:07.870Z,97094.51
2018-09-22T03:25:45.253Z,97094.85
2018-09-22T03:27:20.603Z,97077.02
2018-09-22T03:28:57.572Z,97085.08
2018-09-22T03:30:32.604Z,97085.33
2018-09-22T03:32:07.995Z,97084.09
2018-09-22T03:33:43.501Z,97087.50
2018-09-22T03:35:18.721Z,97085.39
2018-09-22T03:36:54.917Z,97100.48
2018-09-22T03:38:30.168Z,97107.73
2018-09-22T03:40:19.941Z,97094.28
2018-09-22T03:41:55.538Z,97090.61
2018-09-22T03:43:30.553Z,97095.55
2018-09-22T03:45:07.455Z,97108.16
2018-09-22T03:46:42.324Z,97112.59
2018-09-22T03:48:17.467Z,97104.95
2018-09-22T03:49:52.499Z,97113.60
2018-09-22T03:51:27.718Z,97117.28
2018-09-22T03:53:03.363Z,97113.44
2018-09-22T03:54:38.374Z,97116.94
2018-09-22T03:56:13.329Z,97115.40
2018-09-22T03:57:51.331Z,97119.83
2018-09-22T03:59:28.990Z,97122.45
2018-09-22T04:01:04.665Z,97120.07
2018-09-22T04:02:40.101Z,97116.17
2018-09-22T04:04:16.438Z,97107.39
2018-09-22T04:05:51.514Z,97106.13
2018-09-22T04:07:27.571Z,97103.91
2018-09-22T04:09:02.658Z,97108.94
2018-09-22T04:10:37.910Z,97099.73
2018-09-22T04:12:13.234Z,97100.41
2018-09-22T04:13:48.310Z,97100.23
2018-09-22T04:15:23.798Z,97100.49
2018-09-22T04:16:58.738Z,97104.34
2018-09-22T04:18:33.614Z,97107.50
2018-09-22T04:20:08.791Z,97106.78
2018-09-22T04:21:43.799Z,97109.69
2018-09-22T04:23:19.228Z,97116.41
2018-09-22T04:24:54.239Z,97119.32
2018-09-22T04:26:29.839Z,97120.34
2018-09-22T04:28:04.957Z,97124.33
2018-09-22T04:29:40.892Z,97125.00
2018-09-22T04:31:16.039Z,97130.80
2018-09-22T04:32:51.382Z,97133.88
2018-09-22T04:34:27.524Z,97139.15
2018-09-22T04:36:04.874Z,97135.90
2018-09-22T04:37:40.250Z,97132.58
2018-09-22T04:39:16.401Z,97136.31
2018-09-22T04:40:51.773Z,97143.73
2018-09-22T04:42:30.982Z,97147.33
2018-09-22T04:44:06.127Z,97154.31
2018-09-22T04:45:41.595Z,97155.41
2018-09-22T04:47:17.322Z,97151.42
2018-09-22T04:48:52.498Z,97158.23
2018-09-22T04:50:27.462Z,97158.09
2018-09-22T04:52:02.662Z,97149.91
2018-09-22T04:53:37.604Z,97155.19
2018-09-22T04:55:12.882Z,97149.31
2018-09-22T04:56:48.587Z,97152.81
2018-09-22T04:58:24.099Z,97152.56
2018-09-22T05:00:00.091Z,97155.53
2018-09-22T05:01:35.248Z,97165.00
2018-09-22T05:03:10.258Z,97159.75
2018-09-22T05:04:45.389Z,97162.12
2018-09-22T05:06:20.555Z,97159.66
2018-09-22T05:07:56.385Z,97162.22
2018-09-22T05:09:32.388Z,97165.47
2018-09-22T05:11:07.733Z,97167.35
2018-09-22T05:12:44.184Z,97165.36
2018-09-22T05:14:19.729Z,97176.63
2018-09-22T05:15:55.406Z,97179.09
2018-09-22T05:17:30.781Z,97178.25
2018-09-22T05:19:06.452Z,97175.61
2018-09-22T05:20:42.957Z,97173.73
2018-09-22T05:22:19.503Z,97178.17
2018-09-22T05:23:56.277Z,97187.73
2018-09-22T05:25:34.461Z,97182.77
2018-09-22T05:27:10.466Z,97183.45
2018-09-22T05:28:46.311Z,97189.27
2018-09-22T05:30:23.574Z,97185.92
2018-09-22T05:31:58.838Z,97187.87
2018-09-22T05:33:34.542Z,97186.44
2018-09-22T05:35:10.178Z,97191.99
2018-09-22T05:36:45.306Z,97199.41
2018-09-22T05:38:20.661Z,97194.55
2018-09-22T05:40:02.039Z,97203.23
2018-09-22T05:41:37.217Z,97198.55
2018-09-22T05:43:12.542Z,97202.37
2018-09-22T05:44:47.679Z,97205.69
2018-09-22T05:46:25.450Z,97204.67
2018-09-22T05:48:01.061Z,97216.45
2018-09-22T05:49:37.233Z,97214.56
2018-09-22T05:51:12.610Z,97216.37
2018-09-22T05:52:48.810Z,97223.12
2018-09-22T05:54:25.668Z,97228.75
2018-09-22T05:56:01.162Z,97227.20
2018-09-22T05:57:38.842Z,97227.78
2018-09-22T05:59:18.939Z,97230.68
2018-09-22T06:00:56.531Z,97223.52
2018-09-22T06:02:34.634Z,97211.51
2018-09-22T06:04:12.258Z,97211.48
2018-09-22T06:05:48.827Z,97214.31
2018-09-22T06:07:26.070Z,97205.38
2018-09-22T06:09:01.126Z,97211.18
2018-09-22T06:10:38.586Z,97214.58
2018-09-22T06:12:13.757Z,97215.27
2018-09-22T06:13:52.124Z,97224.20
2018-09-22T06:15:28.407Z,97224.05
2018-09-22T06:17:05.447Z,97230.28
2018-09-22T06:18:40.646Z,97225.48
2018-09-22T06:20:16.906Z,97224.38
2018-09-22T06:21:52.527Z,97222.84
2018-09-22T06:23:28.388Z,97218.50
2018-09-22T06:25:03.399Z,97225.92
2018-09-22T06:26:38.802Z,97222.41
2018-09-22T06:28:14.026Z,97216.44
2018-09-22T06:29:50.573Z,97213.88
2018-09-22T06:31:25.670Z,97218.41
2018-09-22T06:33:02.349Z,97210.96
2018-09-22T06:34:37.542Z,97211.11
2018-09-22T06:36:20.274Z,97214.38
2018-09-22T06:37:56.264Z,97212.95
2018-09-22T06:39:31.863Z,97214.45
2018-09-22T06:41:09.903Z,97213.22
2018-09-22T06:42:45.507Z,97204.67
2018-09-22T06:44:22.695Z,97209.20
2018-09-22T06:45:57.770Z,97209.22
2018-09-22T06:47:34.444Z,97211.31
2018-09-22T06:49:09.581Z,97202.51
2018-09-22T06:50:44.897Z,97195.38
2018-09-22T06:52:19.964Z,97199.87
2018-09-22T06:53:56.485Z,97195.59
2018-09-22T06:55:34.173Z,97207.06
2018-09-22T06:57:11.359Z,97222.17
2018-09-22T06:58:47.078Z,97211.27
2018-09-22T07:00:24.029Z,97203.75
2018-09-22T07:02:03.986Z,97203.84
2018-09-22T07:03:40.789Z,97223.78
2018-09-22T07:05:18.315Z,97236.89
2018-09-22T07:06:54.681Z,97229.17
2018-09-22T07:08:30.330Z,97227.24
2018-09-22T07:10:08.154Z,97233.38
2018-09-22T07:11:46.953Z,97223.97
2018-09-22T07:13:22.386Z,97226.01
2018-09-22T07:14:57.829Z,97223.23
2018-09-22T07:16:33.420Z,97227.20
2018-09-22T07:18:11.843Z,97223.83
2018-09-22T07:19:48.049Z,97221.67
2018-09-22T07:21:28.071Z,97223.97
2018-09-22T07:23:08.068Z,97229.66
2018-09-22T07:24:44.248Z,97234.42
2018-09-22T07:26:19.246Z,97236.20
2018-09-22T07:27:55.513Z,97238.20
2018-09-22T07:29:31.305Z,97237.59
2018-09-22T07:31:06.832Z,97231.30
2018-09-22T07:32:44.795Z,97226.70
2018-09-22T07:34:21.952Z,97227.25
2018-09-22T07:35:58.601Z,97237.77
2018-09-22T07:37:35.507Z,97249.57
2018-09-22T07:39:13.880Z,97241.53
2018-09-22T07:40:50.811Z,97241.59
2018-09-22T07:42:27.210Z,97241.47
2018-09-22T07:44:04.156Z,97236.87
2018-09-22T07:45:39.473Z,97249.64
2018-09-22T07:47:14.846Z,97250.41
2018-09-22T07:48:59.767Z,97257.69
2018-09-22T07:50:37.177Z,97263.39
2018-09-22T07:52:13.219Z,97266.67
2018-09-22T07:53:49.476Z,97264.53
2018-09-22T07:55:25.240Z,97267.77
2018-09-22T07:57:00.527Z,97277.09
2018-09-22T07:58:36.895Z,97281.63
2018-09-22T08:00:17.836Z,97272.84
2018-09-22T08:01:54.114Z,97262.25
2018-09-22T08:03:29.851Z,97262.60
2018-09-22T08:05:10.562Z,97264.19
2018-09-22T08:06:47.793Z,97264.98
2018-09-22T08:08:23.121Z,97259.74
2018-09-22T08:09:58.719Z,97255.23
2018-09-22T08:11:34.083Z,97253.31
2018-09-22T08:13:09.100Z,97246.30
2018-09-22T08:14:44.365Z,97239.43
2018-09-22T08:16:19.673Z,97246.48
2018-09-22T08:17:56.391Z,97253.27
2018-09-22T08:19:35.148Z,97252.98
2018-09-22T08:21:10.590Z,97253.34
2018-09-22T08:22:47.903Z,97255.80
2018-09-22T08:24:23.393Z,97265.63
2018-09-22T08:25:59.281Z,97275.44
2018-09-22T08:27:34.582Z,97278.14
2018-09-22T08:29:15.590Z,97276.88
2018-09-22T08:30:51.321Z,97269.22
2018-09-22T08:32:27.283Z,97268.45
2018-09-22T08:34:09.074Z,97269.94
2018-09-22T08:35:47.909Z,97272.20
2018-09-22T08:37:27.395Z,97269.66
2018-09-22T08:39:04.263Z,97268.28
2018-09-22T08:40:41.202Z,97277.00
2018-09-22T08:42:17.671Z,97279.11
2018-09-22T08:43:59.952Z,97277.26
2018-09-22T08:45:35.915Z,97274.58
2018-09-22T08:47:12.102Z,97271.09
2018-09-22T08:48:48.794Z,97262.19
2018-09-22T08:50:24.975Z,97256.69
2018-09-22T08:52:00.378Z,97273.03
2018-09-22T08:53:41.213Z,97276.97
2018-09-22T08:55:18.276Z,97270.59
2018-09-22T08:56:56.095Z,97274.53
2018-09-22T08:58:32.569Z,97269.20
2018-09-22T09:00:10.785Z,97263.63
2018-09-22T09:01:50.059Z,97260.05
2018-09-22T09:03:28.926Z,97261.51
2018-09-22T09:05:06.170Z,97264.05
2018-09-22T09:06:44.475Z,97261.25
2018-09-22T09:08:22.980Z,97262.50
2018-09-22T09:10:06.356Z,97269.06
2018-09-22T09:11:42.658Z,97257.14
2018-09-22T09:13:20.119Z,97268.17
2018-09-22T09:14:56.430Z,97258.20
2018-09-22T09:16:34.502Z,97255.09
2018-09-22T09:18:10.283Z,97254.80
2018-09-22T09:19:45.639Z,97259.75
2018-09-22T09:21:22.639Z,97247.45
2018-09-22T09:23:01.852Z,97241.87
2018-09-22T09:24:39.907Z,97242.65
2018-09-22T09:26:17.122Z,97232.05
2018-09-22T09:27:52.599Z,97237.84
2018-09-22T09:29:29.870Z,97241.33
2018-09-22T09:31:11.067Z,97242.23
2018-09-22T09:32:49.174Z,97252.19
2018-09-22T09:34:25.192Z,97250.62
2018-09-22T09:36:03.140Z,97232.83
2018-09-22T09:37:40.525Z,97262.05
2018-09-22T09:39:15.909Z,97254.11
2018-09-22T09:40:51.701Z,97256.23
2018-09-22T09:42:28.362Z,97253.17
2018-09-22T09:44:04.670Z,97244.78
2018-09-22T09:45:39.851Z,97236.95
2018-09-22T09:47:19.548Z,97239.97
2018-09-22T09:48:57.095Z,97240.82
2018-09-22T09:50:35.091Z,97226.97
2018-09-22T09:52:12.970Z,97225.88
2018-09-22T09:53:51.633Z,97213.57
2018-09-22T09:55:33.973Z,97212.50
2018-09-22T09:57:13.353Z,97222.01
2018-09-22T09:58:52.289Z,97213.70
2018-09-22T10:00:37.480Z,97213.83
2018-09-22T10:02:17.524Z,97219.48
2018-09-22T10:03:54.606Z,97207.23
2018-09-22T10:05:38.187Z,97206.28
2018-09-22T10:07:19.788Z,97210.80
2018-09-22T10:09:00.244Z,97207.36
2018-09-22T10:10:41.364Z,97195.66
2018-09-22T10:12:23.628Z,97196.61
2018-09-22T10:14:02.172Z,97197.03
2018-09-22T10:15:41.235Z,97194.75
2018-09-22T10:17:32.815Z,97194.70
2018-09-22T10:19:12.336Z,97198.60
2018-09-22T10:20:49.948Z,97204.45
2018-09-22T10:22:51.611Z,97201.97
2018-09-22T10:24:40.469Z,97204.29
2018-09-22T10:28:15.075Z,97198.89
2018-09-22T10:29:52.055Z,97198.27
2018-09-22T10:31:33.935Z,97196.45
2018-09-22T10:33:11.276Z,97182.37
2018-09-22T10:34:56.370Z,97180.21
2018-09-22T10:36:38.437Z,97181.23
2018-09-22T10:38:15.912Z,97175.69
2018-09-22T10:39:52.433Z,97166.71
2018-09-22T10:41:29.242Z,97170.44
2018-09-22T10:43:05.853Z,97169.19
2018-09-22T10:44:43.182Z,97171.29
2018-09-22T10:46:19.626Z,97166.96
2018-09-22T10:47:56.567Z,97164.66
2018-09-22T10:49:32.081Z,97175.88
2018-09-22T10:51:09.725Z,97171.41
2018-09-22T10:52:47.762Z,97166.28
2018-09-22T10:54:26.397Z,97175.44
2018-09-22T10:56:06.261Z,97166.53
2018-09-22T10:57:46.932Z,97177.11
2018-09-22T10:59:31.149Z,97184.02
2018-09-22T11:01:11.024Z,97184.61
2018-09-22T11:02:50.212Z,97192.27
2018-09-22T11:04:25.767Z,97193.30
2018-09-22T11:06:02.422Z,97187.01
2018-09-22T11:07:45.432Z,97183.08
2018-09-22T11:09:23.849Z,97177.41
2018-09-22T11:11:00.915Z,97176.06
2018-09-22T11:12:36.918Z,97177.20
2018-09-22T11:14:13.371Z,97179.94
2018-09-22T11:15:50.129Z,97178.77
2018-09-22T11:17:25.789Z,97178.27
2018-09-22T11:19:02.647Z,97174.07
2018-09-22T11:20:38.951Z,97175.59
2018-09-22T11:22:18.859Z,97181.49
2018-09-22T11:23:55.957Z,97180.64
2018-09-22T11:25:35.879Z,97182.22
2018-09-22T11:27:12.382Z,97188.84
2018-09-22T11:28:56.651Z,97191.86
2018-09-22T11:30:35.614Z,97196.20
2018-09-22T11:32:16.582Z,97190.14
2018-09-22T11:34:19.087Z,97179.05
2018-09-22T11:35:55.680Z,97168.80
2018-09-22T11:37:33.220Z,97171.71
2018-09-22T11:39:12.095Z,97164.06
2018-09-22T11:40:48.991Z,97166.43
2018-09-22T11:42:27.583Z,97160.79
2018-09-22T11:44:03.772Z,97161.66
2018-09-22T11:45:40.444Z,97170.30
2018-09-22T11:47:19.448Z,97169.95
2018-09-22T11:48:54.835Z,97165.70
2018-09-22T11:50:36.053Z,97161.56
2018-09-22T11:52:14.770Z,97167.34
2018-09-22T11:53:50.550Z,97163.96
2018-09-22T11:55:27.965Z,97165.81
2018-09-22T11:57:05.095Z,97167.64
2018-09-22T11:58:42.996Z,97158.67
2018-09-22T12:00:26.725Z,97159.73
2018-09-22T12:02:03.726Z,97166.23
2018-09-22T12:03:50.813Z,97172.66
2018-09-22T12:05:38.541Z,97171.86
2018-09-22T12:07:23.631Z,97174.39
2018-09-22T12:09:05.063Z,97177.20
2018-09-22T12:10:41.074Z,97185.86
2018-09-22T12:12:22.699Z,97187.48
2018-09-22T12:14:08.404Z,97191.91
2018-09-22T12:15:49.346Z,97182.28
2018-09-22T12:17:38.033Z,97180.28
2018-09-22T12:19:20.034Z,97170.91
2018-09-22T12:21:08.022Z,97167.75
2018-09-22T12:22:45.608Z,97170.50
2018-09-22T12:24:26.900Z,97169.09
2018-09-22T12:26:08.720Z,97166.47
2018-09-22T12:27:51.372Z,97158.33
2018-09-22T12:29:30.290Z,97164.17
2018-09-22T12:31:15.279Z,97159.86
2018-09-22T12:32:52.995Z,97163.41
2018-09-22T12:34:33.910Z,97169.06
2018-09-22T12:36:19.207Z,97173.58
2018-09-22T12:40:16.089Z,97186.23
2018-09-22T12:41:52.973Z,97187.20
2018-09-22T12:43:33.467Z,97188.84
2018-09-22T12:45:09.421Z,97179.16
2018-09-22T12:46:45.546Z,97170.59
2018-09-22T12:48:23.092Z,97171.47
2018-09-22T12:49:59.540Z,97173.80
2018-09-22T12:51:34.955Z,97184.03
2018-09-22T12:53:11.453Z,97183.48
2018-09-22T12:54:47.860Z,97171.09
2018-09-22T12:56:26.326Z,97166.95
2018-09-22T12:58:07.945Z,97160.53
2018-09-22T12:59:49.335Z,97166.20
2018-09-22T13:01:34.544Z,97175.58
2018-09-22T13:03:17.822Z,97185.58
2018-09-22T13:05:11.672Z,97179.97
2018-09-22T13:06:57.278Z,97178.11
2018-09-22T13:08:36.644Z,97172.78
2018-09-22T13:10:14.436Z,97172.17
2018-09-22T13:11:52.191Z,97162.86
2018-09-22T13:13:29.848Z,97154.17
2018-09-22T13:15:11.763Z,97161.19
2018-09-22T13:17:01.808Z,97157.82
2018-09-22T13:18:44.312Z,97154.62
2018-09-22T13:20:27.017Z,97146.36
2018-09-22T13:22:08.417Z,97148.19
2018-09-22T13:23:56.656Z,97155.81
2018-09-22T13:25:34.348Z,97150.63
2018-09-22T13:27:18.858Z,97149.27
2018-09-22T13:29:15.723Z,97141.47
2018-09-22T13:30:57.047Z,97126.17
2018-09-22T13:32:34.147Z,97131.23
2018-09-22T13:34:13.122Z,97122.55
2018-09-22T13:35:55.264Z,97131.23
2018-09-22T13:37:38.452Z,97118.67
2018-09-22T13:39:17.163Z,97118.80
2018-09-22T13:40:57.701Z,97114.12
2018-09-22T13:43:05.257Z,97114.55
2018-09-22T13:45:00.388Z,97126.80
2018-09-22T13:49:11.331Z,97127.97
2018-09-22T13:51:05.363Z,97125.41
2018-09-22T13:55:19.668Z,97114.09
2018-09-22T13:57:01.255Z,97115.95
2018-09-22T14:00:46.535Z,97114.30
2018-09-22T14:02:39.243Z,97119.20
2018-09-22T14:06:47.478Z,97116.88
2018-09-22T14:08:31.238Z,97128.17
2018-09-22T14:10:14.752Z,97126.97
2018-09-22T14:11:55.698Z,97128.16
2018-09-22T14:13:47.155Z,97129.20
2018-09-22T14:15:28.043Z,97138.36
2018-09-22T14:17:06.179Z,97142.02
2018-09-22T14:18:41.462Z,97146.25
2018-09-22T14:20:18.638Z,97162.41
2018-09-22T14:21:58.572Z,97173.02
2018-09-22T14:23:41.244Z,97175.22
2018-09-22T14:25:18.853Z,97170.05
2018-09-22T14:27:05.477Z,97168.52
2018-09-22T14:28:52.476Z,97167.28
2018-09-22T14:30:51.163Z,97156.37
2018-09-22T14:32:30.089Z,97156.83
2018-09-22T14:34:08.747Z,97146.67
2018-09-22T14:35:46.333Z,97142.24
2018-09-22T14:37:26.306Z,97135.87
2018-09-22T14:39:03.802Z,97114.50
2018-09-22T14:40:42.287Z,97113.96
2018-09-22T14:42:40.100Z,97117.52
2018-09-22T14:44:18.337Z,97123.25
2018-09-22T14:45:55.720Z,97128.39
2018-09-22T14:47:33.990Z,97128.09
2018-09-22T14:49:10.852Z,97123.82
2018-09-22T14:50:57.219Z,97130.33
2018-09-22T14:52:34.341Z,97139.91
2018-09-22T14:54:19.483Z,97145.30
2018-09-22T14:55:57.767Z,97156.97
2018-09-22T14:57:35.245Z,97156.03
2018-09-22T14:59:11.847Z,97160.16
2018-09-22T15:00:52.500Z,97162.88
2018-09-22T15:02:33.434Z,97158.53
2018-09-22T15:04:13.319Z,97162.80
2018-09-22T15:05:52.012Z,97158.16
2018-09-22T15:07:31.622Z,97162.31
2018-09-22T15:09:11.294Z,97145.96
2018-09-22T15:10:55.644Z,97148.36
2018-09-22T15:12:38.556Z,97145.96
2018-09-22T15:14:16.470Z,97138.13
2018-09-22T15:15:57.563Z,97140.66
2018-09-22T15:17:51.295Z,97144.19
2018-09-22T15:19:31.675Z,97150.26
2018-09-22T15:21:07.863Z,97140.09
2018-09-22T15:22:46.012Z,97130.21
2018-09-22T15:24:23.185Z,97125.55
2018-09-22T15:26:01.625Z,97119.80
2018-09-22T15:27:40.579Z,97128.28
2018-09-22T15:29:24.859Z,97128.77
2018-09-22T15:31:15.946Z,97132.00
2018-09-22T15:32:56.327Z,97132.09
2018-09-22T15:34:44.244Z,97127.33
2018-09-22T15:36:25.911Z,97119.89
2018-09-22T15:38:12.241Z,97116.46
2018-09-22T15:40:01.537Z,97124.66
2018-09-22T15:41:47.956Z,97126.03
2018-09-22T15:43:35.461Z,97142.95
2018-09-22T15:45:18.515Z,97148.55
2018-09-22T15:46:59.787Z,97140.66
2018-09-22T15:48:47.116Z,97135.36
2018-09-22T15:50:29.228Z,97131.57
2018-09-22T15:52:12.728Z,97135.23
2018-09-22T15:53:59.825Z,97133.61
2018-09-22T15:55:38.838Z,97135.84
2018-09-22T15:57:18.266Z,97140.92
2018-09-22T15:58:56.228Z,97138.66
2018-09-22T16:00:33.328Z,97139.34
2018-09-22T16:02:17.804Z,97129.17
2018-09-22T16:03:55.189Z,97131.31
2018-09-22T16:05:37.883Z,97130.38
2018-09-22T16:07:27.520Z,97131.05
2018-09-22T16:09:04.532Z,97119.10
2018-09-22T16:10:49.434Z,97122.29
2018-09-22T16:12:29.834Z,97131.86
2018-09-22T16:14:15.788Z,97126.78
2018-09-22T16:15:58.526Z,97131.55
2018-09-22T16:20:02.190Z,97128.94
2018-09-22T16:21:47.657Z,97134.95
2018-09-22T16:23:36.854Z,97132.14
2018-09-22T16:25:28.189Z,97139.31
2018-09-22T16:27:04.742Z,97128.64
2018-09-22T16:28:44.085Z,97136.63
2018-09-22T16:30:27.278Z,97137.05
2018-09-22T16:32:18.429Z,97133.46
2018-09-22T16:33:59.799Z,97134.48
2018-09-22T16:35:46.639Z,97125.70
2018-09-22T16:37:34.142Z,97127.58
2018-09-22T16:39:28.631Z,97120.88
2018-09-22T16:41:27.222Z,97114.48
2018-09-22T16:43:30.921Z,97103.30
2018-09-22T16:45:21.070Z,97107.05
2018-09-22T16:47:01.071Z,97110.98
2018-09-22T16:48:49.041Z,97103.20
2018-09-22T16:50:30.578Z,97099.97
2018-09-22T16:52:10.182Z,97110.05
2018-09-22T16:53:58.608Z,97101.42
2018-09-22T16:55:47.687Z,97105.02
2018-09-22T16:57:59.989Z,97099.67
2018-09-22T17:00:05.133Z,97100.99
2018-09-22T17:01:45.548Z,97098.35
2018-09-22T17:03:27.999Z,97097.28
2018-09-22T17:05:26.691Z,97099.72
2018-09-22T17:08:59.209Z,97108.25
2018-09-22T17:10:39.487Z,97100.99
2018-09-22T17:12:24.106Z,97110.48
2018-09-22T17:14:00.235Z,97108.46
2018-09-22T17:15:35.334Z,97108.46
2018-09-22T17:17:21.072Z,97110.34
2018-09-22T17:21:28.619Z,97086.73
2018-09-22T17:23:13.711Z,97090.23
2018-09-22T17:27:01.815Z,97088.20
2018-09-22T17:28:39.654Z,97085.38
2018-09-22T17:30:24.380Z,97087.55
2018-09-22T17:32:02.977Z,97092.25
2018-09-22T17:33:48.252Z,97096.43
2018-09-22T17:35:35.061Z,97095.23
2018-09-22T17:37:17.904Z,97090.03
2018-09-22T17:38:58.232Z,97089.61
2018-09-22T17:40:36.342Z,97079.31
2018-09-22T17:42:27.592Z,97084.66
2018-09-22T17:45:55.455Z,97081.97
2018-09-22T17:47:38.503Z,97085.63
2018-09-22T17:49:21.479Z,97089.05
2018-09-22T17:51:05.320Z,97089.81
2018-09-22T17:52:51.375Z,97077.06
2018-09-22T17:56:23.513Z,97067.16
2018-09-22T17:58:05.933Z,97075.35
2018-09-22T17:59:43.826Z,97081.24
2018-09-22T18:01:23.457Z,97085.67
2018-09-22T18:03:01.246Z,97087.56
2018-09-22T18:04:39.281Z,97092.38
2018-09-22T18:06:18.679Z,97094.55
2018-09-22T18:08:01.345Z,97108.62
2018-09-22T18:09:43.651Z,97119.22
2018-09-22T18:11:31.148Z,97107.52
2018-09-22T18:13:24.880Z,97100.61
2018-09-22T18:15:08.757Z,97091.14
2018-09-22T18:16:58.194Z,97087.98
2018-09-22T18:18:39.604Z,97086.11
2018-09-22T18:22:01.159Z,97088.70
2018-09-22T18:23:38.780Z,97084.44
2018-09-22T18:25:21.667Z,97097.11
2018-09-22T18:27:00.366Z,97105.73
2018-09-22T18:28:40.965Z,97097.97
2018-09-22T18:30:17.721Z,97093.61
2018-09-22T18:32:00.252Z,97081.76
2018-09-22T18:33:38.836Z,97083.72
2018-09-22T18:35:28.309Z,97087.98
2018-09-22T18:37:27.238Z,97092.30
2018-09-22T18:39:10.345Z,97088.20
2018-09-22T18:40:51.645Z,97096.52
2018-09-22T18:42:34.285Z,97111.07
2018-09-22T18:44:15.664Z,97098.39
2018-09-22T18:45:52.242Z,97118.80
2018-09-22T18:47:32.553Z,97113.11
2018-09-22T18:49:13.709Z,97102.73
2018-09-22T18:51:04.378Z,97093.12
2018-09-22T18:52:45.872Z,97098.55
2018-09-22T18:54:23.289Z,97101.56
2018-09-22T18:56:03.777Z,97114.45
2018-09-22T18:57:43.333Z,97119.30
2018-09-22T18:59:30.377Z,97114.05
2018-09-22T19:01:15.799Z,97114.64
2018-09-22T19:02:52.725Z,97112.67
2018-09-22T19:04:28.375Z,97108.59
2018-09-22T19:06:09.608Z,97109.24
2018-09-22T19:07:53.146Z,97111.55
2018-09-22T19:09:33.677Z,97120.67
2018-09-22T19:11:18.834Z,97121.70
2018-09-22T19:12:57.504Z,97121.53
2018-09-22T19:14:45.835Z,97119.48
2018-09-22T19:17:29.493Z,97120.84
2018-09-22T19:19:14.026Z,97117.66
2018-09-22T19:21:05.614Z,97114.19
2018-09-22T19:22:56.530Z,97105.20
2018-09-22T19:26:51.681Z,97109.08
2018-09-22T19:28:42.709Z,97115.90
2018-09-22T19:31:26.227Z,97118.69
2018-09-22T19:34:08.667Z,97116.50
2018-09-22T19:35:54.710Z,97111.18
2018-09-22T19:37:42.692Z,97111.61
2018-09-22T19:39:26.637Z,97108.36
2018-09-22T19:41:20.055Z,97105.13
2018-09-22T19:43:15.673Z,97100.06
2018-09-22T19:45:00.363Z,97100.57
2018-09-22T19:46:49.197Z,97096.30
2018-09-22T19:48:42.809Z,97092.72
2018-09-22T19:50:40.506Z,97100.05
2018-09-22T19:54:22.290Z,97104.91
2018-09-22T19:56:07.735Z,97103.13
2018-09-22T19:57:47.777Z,97103.30
2018-09-22T19:59:35.143Z,97096.98
2018-09-22T20:03:09.258Z,97094.94